sensor_id;sensor_type;location;lat;lon;timestamp;P1;durP1;ratioP1;P2;durP2;ratioP2
19179;SDS011;9722;48.754;8.868;2023-02-17T00:03:01;5.43;;;3.20;;
19179;SDS011;9722;48.754;8.868;2023-02-17T00:06:22;3.40;;;3.07;;
19179;SDS011;9722;48.754;8.868;2023-02-17T00:09:45;4.63;;;3.20;;
19179;SDS011;9722;48.754;8.868;2023-02-17T00:13:05;3.97;;;3.13;;
19179;SDS011;9722;48.754;8.868;2023-02-17T00:16:26;3.90;;;3.17;;
19179;SDS011;9722;48.754;8.868;2023-02-17T00:19:47;3.20;;;2.90;;
19179;SDS011;9722;48.754;8.868;2023-02-17T00:23:08;4.40;;;3.07;;
19179;SDS011;9722;48.754;8.868;2023-02-17T00:26:29;4.83;;;3.50;;
19179;SDS011;9722;48.754;8.868;2023-02-17T00:29:49;3.80;;;3.40;;
19179;SDS011;9722;48.754;8.868;2023-02-17T00:33:10;4.77;;;3.77;;
19179;SDS011;9722;48.754;8.868;2023-02-17T00:36:30;6.67;;;4.70;;
19179;SDS011;9722;48.754;8.868;2023-02-17T00:39:51;4.93;;;4.43;;
19179;SDS011;9722;48.754;8.868;2023-02-17T00:43:11;5.53;;;4.77;;
19179;SDS011;9722;48.754;8.868;2023-02-17T00:46:33;5.53;;;3.70;;
19179;SDS011;9722;48.754;8.868;2023-02-17T00:49:53;5.00;;;4.00;;
19179;SDS011;9722;48.754;8.868;2023-02-17T00:53:14;3.40;;;3.07;;
19179;SDS011;9722;48.754;8.868;2023-02-17T00:56:35;3.53;;;3.23;;
19179;SDS011;9722;48.754;8.868;2023-02-17T00:59:55;7.37;;;3.57;;
19179;SDS011;9722;48.754;8.868;2023-02-17T01:03:16;5.57;;;3.60;;
19179;SDS011;9722;48.754;8.868;2023-02-17T01:06:38;3.77;;;3.40;;
19179;SDS011;9722;48.754;8.868;2023-02-17T01:09:59;4.73;;;3.43;;
19179;SDS011;9722;48.754;8.868;2023-02-17T01:13:19;3.17;;;2.97;;
19179;SDS011;9722;48.754;8.868;2023-02-17T01:16:43;5.07;;;3.30;;
19179;SDS011;9722;48.754;8.868;2023-02-17T01:20:05;3.80;;;3.37;;
19179;SDS011;9722;48.754;8.868;2023-02-17T01:23:26;4.43;;;3.37;;
19179;SDS011;9722;48.754;8.868;2023-02-17T01:26:47;3.87;;;2.80;;
19179;SDS011;9722;48.754;8.868;2023-02-17T01:30:07;4.90;;;3.10;;
19179;SDS011;9722;48.754;8.868;2023-02-17T01:33:28;3.70;;;3.40;;
19179;SDS011;9722;48.754;8.868;2023-02-17T01:36:49;3.63;;;3.10;;
19179;SDS011;9722;48.754;8.868;2023-02-17T01:40:10;3.60;;;3.30;;
19179;SDS011;9722;48.754;8.868;2023-02-17T01:43:33;3.20;;;2.90;;
19179;SDS011;9722;48.754;8.868;2023-02-17T01:46:54;4.50;;;3.10;;
19179;SDS011;9722;48.754;8.868;2023-02-17T01:50:15;3.73;;;3.13;;
19179;SDS011;9722;48.754;8.868;2023-02-17T01:53:44;3.47;;;3.03;;
19179;SDS011;9722;48.754;8.868;2023-02-17T01:57:09;3.40;;;3.13;;
19179;SDS011;9722;48.754;8.868;2023-02-17T02:00:31;4.07;;;2.93;;
19179;SDS011;9722;48.754;8.868;2023-02-17T02:03:54;3.50;;;3.20;;
19179;SDS011;9722;48.754;8.868;2023-02-17T02:07:16;3.50;;;3.20;;
19179;SDS011;9722;48.754;8.868;2023-02-17T02:10:42;6.33;;;3.33;;
19179;SDS011;9722;48.754;8.868;2023-02-17T02:14:03;3.20;;;2.90;;
19179;SDS011;9722;48.754;8.868;2023-02-17T02:39:11;3.93;;;2.97;;
19179;SDS011;9722;48.754;8.868;2023-02-17T02:42:35;5.17;;;2.83;;
19179;SDS011;9722;48.754;8.868;2023-02-17T02:45:57;2.93;;;2.57;;
19179;SDS011;9722;48.754;8.868;2023-02-17T02:49:18;2.87;;;2.33;;
19179;SDS011;9722;48.754;8.868;2023-02-17T02:56:29;3.53;;;3.00;;
19179;SDS011;9722;48.754;8.868;2023-02-17T03:00:21;4.30;;;2.53;;
19179;SDS011;9722;48.754;8.868;2023-02-17T03:04:09;4.70;;;2.30;;
19179;SDS011;9722;48.754;8.868;2023-02-17T03:11:47;4.40;;;2.37;;
19179;SDS011;9722;48.754;8.868;2023-02-17T03:15:11;5.40;;;2.47;;
19179;SDS011;9722;48.754;8.868;2023-02-17T03:18:46;3.07;;;2.40;;
19179;SDS011;9722;48.754;8.868;2023-02-17T03:22:18;3.10;;;2.53;;
19179;SDS011;9722;48.754;8.868;2023-02-17T03:25:42;3.10;;;2.80;;
19179;SDS011;9722;48.754;8.868;2023-02-17T03:29:04;3.40;;;2.90;;
19179;SDS011;9722;48.754;8.868;2023-02-17T03:32:24;3.77;;;2.70;;
19179;SDS011;9722;48.754;8.868;2023-02-17T03:35:45;2.30;;;2.00;;
19179;SDS011;9722;48.754;8.868;2023-02-17T03:39:05;2.60;;;2.40;;
19179;SDS011;9722;48.754;8.868;2023-02-17T03:42:26;2.93;;;2.57;;
19179;SDS011;9722;48.754;8.868;2023-02-17T03:45:47;2.80;;;1.93;;
19179;SDS011;9722;48.754;8.868;2023-02-17T03:49:07;3.07;;;2.10;;
19179;SDS011;9722;48.754;8.868;2023-02-17T03:52:27;1.87;;;1.77;;
19179;SDS011;9722;48.754;8.868;2023-02-17T03:55:48;2.30;;;2.10;;
19179;SDS011;9722;48.754;8.868;2023-02-17T03:59:08;2.63;;;1.90;;
19179;SDS011;9722;48.754;8.868;2023-02-17T04:02:29;2.77;;;1.97;;
19179;SDS011;9722;48.754;8.868;2023-02-17T04:05:49;2.43;;;1.77;;
19179;SDS011;9722;48.754;8.868;2023-02-17T04:09:10;3.47;;;1.77;;
19179;SDS011;9722;48.754;8.868;2023-02-17T04:12:31;3.57;;;1.90;;
19179;SDS011;9722;48.754;8.868;2023-02-17T04:15:51;2.20;;;2.00;;
19179;SDS011;9722;48.754;8.868;2023-02-17T04:19:13;2.50;;;2.00;;
19179;SDS011;9722;48.754;8.868;2023-02-17T04:22:33;2.00;;;1.77;;
19179;SDS011;9722;48.754;8.868;2023-02-17T04:25:54;2.53;;;1.73;;
19179;SDS011;9722;48.754;8.868;2023-02-17T04:29:14;4.53;;;2.10;;
19179;SDS011;9722;48.754;8.868;2023-02-17T04:32:35;1.93;;;1.83;;
19179;SDS011;9722;48.754;8.868;2023-02-17T04:35:56;2.43;;;2.07;;
19179;SDS011;9722;48.754;8.868;2023-02-17T04:39:18;2.13;;;1.60;;
19179;SDS011;9722;48.754;8.868;2023-02-17T04:42:39;3.30;;;1.70;;
19179;SDS011;9722;48.754;8.868;2023-02-17T04:45:59;2.87;;;2.10;;
19179;SDS011;9722;48.754;8.868;2023-02-17T04:49:20;3.80;;;1.83;;
19179;SDS011;9722;48.754;8.868;2023-02-17T04:52:40;2.03;;;1.83;;
19179;SDS011;9722;48.754;8.868;2023-02-17T04:56:01;2.53;;;1.93;;
19179;SDS011;9722;48.754;8.868;2023-02-17T04:59:21;3.07;;;2.10;;
19179;SDS011;9722;48.754;8.868;2023-02-17T05:02:42;2.30;;;2.10;;
19179;SDS011;9722;48.754;8.868;2023-02-17T05:06:02;4.83;;;2.20;;
19179;SDS011;9722;48.754;8.868;2023-02-17T05:09:23;3.37;;;1.80;;
19179;SDS011;9722;48.754;8.868;2023-02-17T05:12:44;3.53;;;2.00;;
19179;SDS011;9722;48.754;8.868;2023-02-17T05:16:04;2.60;;;2.40;;
19179;SDS011;9722;48.754;8.868;2023-02-17T05:19:25;4.10;;;2.20;;
19179;SDS011;9722;48.754;8.868;2023-02-17T05:22:46;2.43;;;2.23;;
19179;SDS011;9722;48.754;8.868;2023-02-17T05:26:07;4.40;;;2.03;;
19179;SDS011;9722;48.754;8.868;2023-02-17T05:29:28;2.60;;;2.40;;
19179;SDS011;9722;48.754;8.868;2023-02-17T05:32:48;3.63;;;2.23;;
19179;SDS011;9722;48.754;8.868;2023-02-17T05:36:10;4.57;;;2.30;;
19179;SDS011;9722;48.754;8.868;2023-02-17T05:39:31;6.17;;;2.63;;
19179;SDS011;9722;48.754;8.868;2023-02-17T05:42:51;3.73;;;2.23;;
19179;SDS011;9722;48.754;8.868;2023-02-17T05:46:12;2.97;;;2.20;;
19179;SDS011;9722;48.754;8.868;2023-02-17T05:49:33;4.90;;;2.70;;
19179;SDS011;9722;48.754;8.868;2023-02-17T05:52:54;5.57;;;2.77;;
19179;SDS011;9722;48.754;8.868;2023-02-17T05:56:14;2.63;;;2.30;;
19179;SDS011;9722;48.754;8.868;2023-02-17T05:59:35;2.80;;;2.60;;
19179;SDS011;9722;48.754;8.868;2023-02-17T06:02:55;3.23;;;2.73;;
19179;SDS011;9722;48.754;8.868;2023-02-17T06:06:16;2.73;;;2.30;;
19179;SDS011;9722;48.754;8.868;2023-02-17T06:09:36;2.83;;;2.50;;
19179;SDS011;9722;48.754;8.868;2023-02-17T06:12:57;4.33;;;3.03;;
19179;SDS011;9722;48.754;8.868;2023-02-17T06:16:17;2.70;;;2.47;;
19179;SDS011;9722;48.754;8.868;2023-02-17T06:19:38;3.37;;;2.43;;
19179;SDS011;9722;48.754;8.868;2023-02-17T06:22:58;3.40;;;2.90;;
19179;SDS011;9722;48.754;8.868;2023-02-17T06:26:19;5.30;;;2.90;;
19179;SDS011;9722;48.754;8.868;2023-02-17T06:29:39;4.10;;;3.30;;
19179;SDS011;9722;48.754;8.868;2023-02-17T06:33:00;3.27;;;2.93;;
19179;SDS011;9722;48.754;8.868;2023-02-17T06:36:20;3.50;;;2.70;;
19179;SDS011;9722;48.754;8.868;2023-02-17T06:39:41;3.63;;;2.70;;
19179;SDS011;9722;48.754;8.868;2023-02-17T06:43:01;2.67;;;2.13;;
19179;SDS011;9722;48.754;8.868;2023-02-17T06:46:22;2.33;;;2.10;;
19179;SDS011;9722;48.754;8.868;2023-02-17T06:49:43;2.60;;;2.40;;
19179;SDS011;9722;48.754;8.868;2023-02-17T06:53:03;4.10;;;2.57;;
19179;SDS011;9722;48.754;8.868;2023-02-17T06:56:24;2.30;;;2.10;;
19179;SDS011;9722;48.754;8.868;2023-02-17T06:59:44;3.60;;;2.33;;
19179;SDS011;9722;48.754;8.868;2023-02-17T07:03:05;2.53;;;1.90;;
19179;SDS011;9722;48.754;8.868;2023-02-17T07:06:25;2.97;;;2.30;;
19179;SDS011;9722;48.754;8.868;2023-02-17T07:09:46;2.23;;;2.03;;
19179;SDS011;9722;48.754;8.868;2023-02-17T07:13:07;2.90;;;2.33;;
19179;SDS011;9722;48.754;8.868;2023-02-17T07:16:27;3.57;;;2.23;;
19179;SDS011;9722;48.754;8.868;2023-02-17T07:19:48;3.00;;;2.47;;
19179;SDS011;9722;48.754;8.868;2023-02-17T07:23:08;3.13;;;2.40;;
19179;SDS011;9722;48.754;8.868;2023-02-17T07:26:29;2.47;;;2.27;;
19179;SDS011;9722;48.754;8.868;2023-02-17T07:29:49;2.90;;;2.53;;
19179;SDS011;9722;48.754;8.868;2023-02-17T07:33:10;3.10;;;2.17;;
19179;SDS011;9722;48.754;8.868;2023-02-17T07:36:30;2.50;;;2.10;;
19179;SDS011;9722;48.754;8.868;2023-02-17T07:39:51;2.27;;;2.07;;
19179;SDS011;9722;48.754;8.868;2023-02-17T07:43:11;2.20;;;2.00;;
19179;SDS011;9722;48.754;8.868;2023-02-17T07:46:32;3.37;;;1.73;;
19179;SDS011;9722;48.754;8.868;2023-02-17T07:49:52;3.67;;;2.17;;
19179;SDS011;9722;48.754;8.868;2023-02-17T07:53:13;2.27;;;2.00;;
19179;SDS011;9722;48.754;8.868;2023-02-17T07:56:33;2.53;;;2.30;;
19179;SDS011;9722;48.754;8.868;2023-02-17T07:59:54;2.70;;;2.00;;
19179;SDS011;9722;48.754;8.868;2023-02-17T08:03:14;2.67;;;2.40;;
19179;SDS011;9722;48.754;8.868;2023-02-17T08:06:36;2.20;;;2.00;;
19179;SDS011;9722;48.754;8.868;2023-02-17T08:09:57;2.60;;;2.07;;
19179;SDS011;9722;48.754;8.868;2023-02-17T08:13:36;3.60;;;2.20;;
19179;SDS011;9722;48.754;8.868;2023-02-17T08:16:57;2.27;;;2.07;;
19179;SDS011;9722;48.754;8.868;2023-02-17T08:20:18;2.43;;;2.23;;
19179;SDS011;9722;48.754;8.868;2023-02-17T08:23:38;2.43;;;2.00;;
19179;SDS011;9722;48.754;8.868;2023-02-17T08:26:59;2.37;;;2.17;;
19179;SDS011;9722;48.754;8.868;2023-02-17T08:30:19;2.07;;;1.97;;
19179;SDS011;9722;48.754;8.868;2023-02-17T08:33:40;2.20;;;2.00;;
19179;SDS011;9722;48.754;8.868;2023-02-17T08:37:01;1.70;;;1.57;;
19179;SDS011;9722;48.754;8.868;2023-02-17T08:40:23;2.33;;;1.63;;
19179;SDS011;9722;48.754;8.868;2023-02-17T08:43:44;2.10;;;1.90;;
19179;SDS011;9722;48.754;8.868;2023-02-17T08:47:05;2.97;;;2.67;;
19179;SDS011;9722;48.754;8.868;2023-02-17T08:50:26;2.80;;;1.67;;
19179;SDS011;9722;48.754;8.868;2023-02-17T08:53:47;2.90;;;2.20;;
19179;SDS011;9722;48.754;8.868;2023-02-17T08:57:07;6.13;;;5.53;;
19179;SDS011;9722;48.754;8.868;2023-02-17T09:00:28;2.93;;;2.00;;
19179;SDS011;9722;48.754;8.868;2023-02-17T09:03:49;4.30;;;3.30;;
19179;SDS011;9722;48.754;8.868;2023-02-17T09:07:11;8.03;;;6.27;;
19179;SDS011;9722;48.754;8.868;2023-02-17T09:10:33;7.60;;;6.90;;
19179;SDS011;9722;48.754;8.868;2023-02-17T09:13:53;3.10;;;2.30;;
19179;SDS011;9722;48.754;8.868;2023-02-17T09:17:14;1.87;;;1.67;;
19179;SDS011;9722;48.754;8.868;2023-02-17T09:20:35;1.80;;;1.67;;
19179;SDS011;9722;48.754;8.868;2023-02-17T09:23:56;1.77;;;1.67;;
19179;SDS011;9722;48.754;8.868;2023-02-17T09:27:17;1.83;;;1.60;;
19179;SDS011;9722;48.754;8.868;2023-02-17T09:30:38;1.30;;;1.20;;
19179;SDS011;9722;48.754;8.868;2023-02-17T09:33:59;1.47;;;1.20;;
19179;SDS011;9722;48.754;8.868;2023-02-17T09:37:20;1.47;;;1.37;;
19179;SDS011;9722;48.754;8.868;2023-02-17T09:40:42;1.73;;;1.20;;
19179;SDS011;9722;48.754;8.868;2023-02-17T09:48:07;1.03;;;1.03;;
19179;SDS011;9722;48.754;8.868;2023-02-17T09:51:41;0.97;;;0.97;;
19179;SDS011;9722;48.754;8.868;2023-02-17T09:55:19;0.80;;;0.80;;
19179;SDS011;9722;48.754;8.868;2023-02-17T09:58:53;1.07;;;0.70;;
19179;SDS011;9722;48.754;8.868;2023-02-17T10:02:24;1.43;;;0.90;;
19179;SDS011;9722;48.754;8.868;2023-02-17T10:06:12;0.93;;;0.70;;
19179;SDS011;9722;48.754;8.868;2023-02-17T10:09:54;0.80;;;0.80;;
19179;SDS011;9722;48.754;8.868;2023-02-17T10:13:23;0.60;;;0.60;;
19179;SDS011;9722;48.754;8.868;2023-02-17T10:16:47;1.00;;;0.93;;
19179;SDS011;9722;48.754;8.868;2023-02-17T10:20:18;0.87;;;0.77;;
19179;SDS011;9722;48.754;8.868;2023-02-17T10:23:44;0.53;;;0.53;;
19179;SDS011;9722;48.754;8.868;2023-02-17T10:31:02;0.53;;;0.40;;
19179;SDS011;9722;48.754;8.868;2023-02-17T10:41:37;0.50;;;0.50;;
19179;SDS011;9722;48.754;8.868;2023-02-17T10:45:09;1.07;;;0.30;;
19179;SDS011;9722;48.754;8.868;2023-02-17T10:48:46;0.73;;;0.40;;
19179;SDS011;9722;48.754;8.868;2023-02-17T10:52:15;0.30;;;0.30;;
19179;SDS011;9722;48.754;8.868;2023-02-17T10:55:40;3.77;;;0.50;;
19179;SDS011;9722;48.754;8.868;2023-02-17T10:59:13;0.20;;;0.20;;
19179;SDS011;9722;48.754;8.868;2023-02-17T11:02:43;0.50;;;0.40;;
19179;SDS011;9722;48.754;8.868;2023-02-17T11:06:13;0.60;;;0.40;;
19179;SDS011;9722;48.754;8.868;2023-02-17T11:09:35;0.30;;;0.30;;
19179;SDS011;9722;48.754;8.868;2023-02-17T11:13:05;0.30;;;0.30;;
19179;SDS011;9722;48.754;8.868;2023-02-17T11:16:54;0.30;;;0.30;;
19179;SDS011;9722;48.754;8.868;2023-02-17T11:23:53;1.27;;;0.30;;
19179;SDS011;9722;48.754;8.868;2023-02-17T11:27:18;0.37;;;0.37;;
19179;SDS011;9722;48.754;8.868;2023-02-17T11:30:48;0.30;;;0.30;;
19179;SDS011;9722;48.754;8.868;2023-02-17T11:34:11;0.40;;;0.40;;
19179;SDS011;9722;48.754;8.868;2023-02-17T11:37:36;0.40;;;0.40;;
19179;SDS011;9722;48.754;8.868;2023-02-17T11:41:02;0.53;;;0.43;;
19179;SDS011;9722;48.754;8.868;2023-02-17T11:44:26;0.30;;;0.30;;
19179;SDS011;9722;48.754;8.868;2023-02-17T11:47:51;0.40;;;0.40;;
19179;SDS011;9722;48.754;8.868;2023-02-17T11:55:14;0.53;;;0.30;;
19179;SDS011;9722;48.754;8.868;2023-02-17T11:58:47;0.40;;;0.40;;
19179;SDS011;9722;48.754;8.868;2023-02-17T12:09:21;0.67;;;0.60;;
19179;SDS011;9722;48.754;8.868;2023-02-17T12:30:58;0.63;;;0.40;;
19179;SDS011;9722;48.754;8.868;2023-02-17T12:34:33;0.70;;;0.67;;
19179;SDS011;9722;48.754;8.868;2023-02-17T12:38:08;2.33;;;0.50;;
19179;SDS011;9722;48.754;8.868;2023-02-17T12:41:35;0.40;;;0.40;;
19179;SDS011;9722;48.754;8.868;2023-02-17T12:45:09;0.20;;;0.20;;
19179;SDS011;9722;48.754;8.868;2023-02-17T12:48:48;0.47;;;0.43;;
19179;SDS011;9722;48.754;8.868;2023-02-17T12:52:39;0.40;;;0.40;;
19179;SDS011;9722;48.754;8.868;2023-02-17T12:56:19;0.40;;;0.40;;
19179;SDS011;9722;48.754;8.868;2023-02-17T12:59:52;1.50;;;0.77;;
19179;SDS011;9722;48.754;8.868;2023-02-17T13:03:13;0.30;;;0.30;;
19179;SDS011;9722;48.754;8.868;2023-02-17T13:06:38;0.40;;;0.40;;
19179;SDS011;9722;48.754;8.868;2023-02-17T13:10:03;0.50;;;0.50;;
19179;SDS011;9722;48.754;8.868;2023-02-17T13:13:26;0.37;;;0.37;;
19179;SDS011;9722;48.754;8.868;2023-02-17T13:16:48;0.77;;;0.30;;
19179;SDS011;9722;48.754;8.868;2023-02-17T13:23:32;0.80;;;0.80;;
19179;SDS011;9722;48.754;8.868;2023-02-17T13:26:55;0.30;;;0.30;;
19179;SDS011;9722;48.754;8.868;2023-02-17T13:33:40;1.50;;;0.50;;
19179;SDS011;9722;48.754;8.868;2023-02-17T13:37:16;0.80;;;0.70;;
19179;SDS011;9722;48.754;8.868;2023-02-17T13:40:42;0.33;;;0.33;;
19179;SDS011;9722;48.754;8.868;2023-02-17T13:44:14;0.70;;;0.60;;
19179;SDS011;9722;48.754;8.868;2023-02-17T13:47:48;0.67;;;0.50;;
19179;SDS011;9722;48.754;8.868;2023-02-17T13:51:29;0.57;;;0.50;;
19179;SDS011;9722;48.754;8.868;2023-02-17T13:54:55;0.40;;;0.40;;
19179;SDS011;9722;48.754;8.868;2023-02-17T13:58:22;0.70;;;0.60;;
19179;SDS011;9722;48.754;8.868;2023-02-17T14:01:48;2.13;;;1.63;;
19179;SDS011;9722;48.754;8.868;2023-02-17T14:05:17;1.30;;;0.57;;
19179;SDS011;9722;48.754;8.868;2023-02-17T14:08:44;0.90;;;0.50;;
19179;SDS011;9722;48.754;8.868;2023-02-17T14:12:06;0.40;;;0.40;;
19179;SDS011;9722;48.754;8.868;2023-02-17T14:15:36;0.83;;;0.60;;
19179;SDS011;9722;48.754;8.868;2023-02-17T14:22:29;0.70;;;0.70;;
19179;SDS011;9722;48.754;8.868;2023-02-17T14:25:52;0.50;;;0.50;;
19179;SDS011;9722;48.754;8.868;2023-02-17T14:29:15;0.50;;;0.50;;
19179;SDS011;9722;48.754;8.868;2023-02-17T14:32:36;0.73;;;0.63;;
19179;SDS011;9722;48.754;8.868;2023-02-17T14:35:58;0.80;;;0.80;;
19179;SDS011;9722;48.754;8.868;2023-02-17T14:39:20;0.97;;;0.70;;
19179;SDS011;9722;48.754;8.868;2023-02-17T14:42:40;1.50;;;0.70;;
19179;SDS011;9722;48.754;8.868;2023-02-17T14:46:01;1.10;;;1.00;;
19179;SDS011;9722;48.754;8.868;2023-02-17T14:49:22;1.73;;;0.80;;
19179;SDS011;9722;48.754;8.868;2023-02-17T14:52:44;0.77;;;0.77;;
19179;SDS011;9722;48.754;8.868;2023-02-17T14:56:13;1.57;;;0.90;;
19179;SDS011;9722;48.754;8.868;2023-02-17T14:59:49;0.80;;;0.80;;
19179;SDS011;9722;48.754;8.868;2023-02-17T15:03:15;1.10;;;0.93;;
19179;SDS011;9722;48.754;8.868;2023-02-17T15:06:40;1.30;;;1.20;;
19179;SDS011;9722;48.754;8.868;2023-02-17T15:10:05;1.77;;;1.10;;
19179;SDS011;9722;48.754;8.868;2023-02-17T15:13:42;1.00;;;0.90;;
19179;SDS011;9722;48.754;8.868;2023-02-17T15:17:03;1.90;;;1.10;;
19179;SDS011;9722;48.754;8.868;2023-02-17T15:20:23;1.90;;;1.30;;
19179;SDS011;9722;48.754;8.868;2023-02-17T15:23:44;1.77;;;1.60;;
19179;SDS011;9722;48.754;8.868;2023-02-17T15:27:04;2.13;;;1.23;;
19179;SDS011;9722;48.754;8.868;2023-02-17T15:30:26;1.60;;;1.23;;
19179;SDS011;9722;48.754;8.868;2023-02-17T15:33:54;1.40;;;1.30;;
19179;SDS011;9722;48.754;8.868;2023-02-17T15:37:16;1.73;;;1.30;;
19179;SDS011;9722;48.754;8.868;2023-02-17T15:40:36;1.50;;;1.40;;
19179;SDS011;9722;48.754;8.868;2023-02-17T15:43:57;1.70;;;1.43;;
19179;SDS011;9722;48.754;8.868;2023-02-17T15:47:19;1.70;;;1.60;;
19179;SDS011;9722;48.754;8.868;2023-02-17T15:50:40;2.40;;;1.70;;
19179;SDS011;9722;48.754;8.868;2023-02-17T15:54:00;1.70;;;1.60;;
19179;SDS011;9722;48.754;8.868;2023-02-17T15:57:22;2.13;;;1.60;;
19179;SDS011;9722;48.754;8.868;2023-02-17T16:00:43;3.63;;;2.90;;
19179;SDS011;9722;48.754;8.868;2023-02-17T16:04:09;2.00;;;1.80;;
19179;SDS011;9722;48.754;8.868;2023-02-17T16:07:31;2.53;;;1.37;;
19179;SDS011;9722;48.754;8.868;2023-02-17T16:10:52;2.00;;;1.20;;
19179;SDS011;9722;48.754;8.868;2023-02-17T16:14:32;1.83;;;1.60;;
19179;SDS011;9722;48.754;8.868;2023-02-17T16:17:55;1.80;;;1.70;;
19179;SDS011;9722;48.754;8.868;2023-02-17T16:21:16;3.30;;;2.07;;
19179;SDS011;9722;48.754;8.868;2023-02-17T16:24:37;2.70;;;2.20;;
19179;SDS011;9722;48.754;8.868;2023-02-17T16:27:57;2.33;;;1.93;;
19179;SDS011;9722;48.754;8.868;2023-02-17T16:31:18;2.57;;;2.03;;
19179;SDS011;9722;48.754;8.868;2023-02-17T16:34:38;2.23;;;1.67;;
19179;SDS011;9722;48.754;8.868;2023-02-17T16:38:22;1.70;;;1.60;;
19179;SDS011;9722;48.754;8.868;2023-02-17T16:41:42;3.30;;;2.30;;
19179;SDS011;9722;48.754;8.868;2023-02-17T16:45:03;2.23;;;1.57;;
19179;SDS011;9722;48.754;8.868;2023-02-17T16:48:26;1.53;;;1.30;;
19179;SDS011;9722;48.754;8.868;2023-02-17T16:51:48;2.23;;;1.80;;
19179;SDS011;9722;48.754;8.868;2023-02-17T16:55:19;1.77;;;1.30;;
19179;SDS011;9722;48.754;8.868;2023-02-17T16:58:41;2.63;;;1.70;;
19179;SDS011;9722;48.754;8.868;2023-02-17T17:02:02;1.67;;;1.57;;
19179;SDS011;9722;48.754;8.868;2023-02-17T17:05:23;3.40;;;1.80;;
19179;SDS011;9722;48.754;8.868;2023-02-17T17:08:45;2.87;;;1.80;;
19179;SDS011;9722;48.754;8.868;2023-02-17T17:12:17;1.63;;;1.53;;
19179;SDS011;9722;48.754;8.868;2023-02-17T17:16:01;2.80;;;2.30;;
19179;SDS011;9722;48.754;8.868;2023-02-17T17:19:22;2.30;;;2.10;;
19179;SDS011;9722;48.754;8.868;2023-02-17T17:22:43;1.90;;;1.80;;
19179;SDS011;9722;48.754;8.868;2023-02-17T17:26:22;2.40;;;1.80;;
19179;SDS011;9722;48.754;8.868;2023-02-17T17:29:43;2.27;;;1.87;;
19179;SDS011;9722;48.754;8.868;2023-02-17T17:33:04;3.17;;;2.40;;
19179;SDS011;9722;48.754;8.868;2023-02-17T17:36:31;3.03;;;1.77;;
19179;SDS011;9722;48.754;8.868;2023-02-17T17:40:02;1.30;;;1.20;;
19179;SDS011;9722;48.754;8.868;2023-02-17T17:43:23;1.63;;;1.53;;
19179;SDS011;9722;48.754;8.868;2023-02-17T17:46:44;3.27;;;2.37;;
19179;SDS011;9722;48.754;8.868;2023-02-17T17:50:05;2.10;;;1.90;;
19179;SDS011;9722;48.754;8.868;2023-02-17T17:53:28;2.20;;;2.00;;
19179;SDS011;9722;48.754;8.868;2023-02-17T17:56:48;3.03;;;2.43;;
19179;SDS011;9722;48.754;8.868;2023-02-17T18:00:09;8.27;;;4.90;;
19179;SDS011;9722;48.754;8.868;2023-02-17T18:03:33;3.33;;;3.03;;
19179;SDS011;9722;48.754;8.868;2023-02-17T18:06:54;4.20;;;3.80;;
19179;SDS011;9722;48.754;8.868;2023-02-17T18:10:15;7.17;;;6.40;;
19179;SDS011;9722;48.754;8.868;2023-02-17T18:13:36;3.07;;;2.80;;
19179;SDS011;9722;48.754;8.868;2023-02-17T18:16:57;1.33;;;1.10;;
19179;SDS011;9722;48.754;8.868;2023-02-17T18:20:18;2.07;;;1.87;;
19179;SDS011;9722;48.754;8.868;2023-02-17T18:23:38;1.93;;;1.33;;
19179;SDS011;9722;48.754;8.868;2023-02-17T18:26:59;1.53;;;1.20;;
19179;SDS011;9722;48.754;8.868;2023-02-17T18:30:19;1.30;;;1.20;;
19179;SDS011;9722;48.754;8.868;2023-02-17T18:33:40;0.90;;;0.90;;
19179;SDS011;9722;48.754;8.868;2023-02-17T18:37:01;1.13;;;1.03;;
19179;SDS011;9722;48.754;8.868;2023-02-17T18:40:22;1.70;;;1.43;;
19179;SDS011;9722;48.754;8.868;2023-02-17T18:43:42;1.00;;;0.83;;
19179;SDS011;9722;48.754;8.868;2023-02-17T18:47:03;1.00;;;0.90;;
19179;SDS011;9722;48.754;8.868;2023-02-17T18:50:23;1.27;;;0.90;;
19179;SDS011;9722;48.754;8.868;2023-02-17T18:53:45;1.63;;;1.20;;
19179;SDS011;9722;48.754;8.868;2023-02-17T18:57:05;1.00;;;1.00;;
19179;SDS011;9722;48.754;8.868;2023-02-17T19:00:26;3.30;;;3.00;;
19179;SDS011;9722;48.754;8.868;2023-02-17T19:03:47;0.80;;;0.80;;
19179;SDS011;9722;48.754;8.868;2023-02-17T19:07:07;3.87;;;3.27;;
19179;SDS011;9722;48.754;8.868;2023-02-17T19:10:28;1.40;;;1.23;;
19179;SDS011;9722;48.754;8.868;2023-02-17T19:13:48;3.97;;;3.67;;
19179;SDS011;9722;48.754;8.868;2023-02-17T19:17:10;6.33;;;5.83;;
19179;SDS011;9722;48.754;8.868;2023-02-17T19:20:31;3.40;;;3.13;;
19179;SDS011;9722;48.754;8.868;2023-02-17T19:23:52;0.77;;;0.77;;
19179;SDS011;9722;48.754;8.868;2023-02-17T19:27:12;1.50;;;1.40;;
19179;SDS011;9722;48.754;8.868;2023-02-17T19:30:33;2.93;;;2.30;;
19179;SDS011;9722;48.754;8.868;2023-02-17T19:33:53;2.20;;;1.93;;
19179;SDS011;9722;48.754;8.868;2023-02-17T19:37:14;1.60;;;1.50;;
19179;SDS011;9722;48.754;8.868;2023-02-17T19:40:35;1.30;;;1.20;;
19179;SDS011;9722;48.754;8.868;2023-02-17T19:43:55;1.40;;;1.30;;
19179;SDS011;9722;48.754;8.868;2023-02-17T19:47:16;0.83;;;0.83;;
19179;SDS011;9722;48.754;8.868;2023-02-17T19:50:36;3.47;;;3.17;;
19179;SDS011;9722;48.754;8.868;2023-02-17T19:53:58;4.63;;;4.33;;
19179;SDS011;9722;48.754;8.868;2023-02-17T19:57:19;0.87;;;0.83;;
19179;SDS011;9722;48.754;8.868;2023-02-17T20:00:40;0.83;;;0.83;;
19179;SDS011;9722;48.754;8.868;2023-02-17T20:04:02;0.80;;;0.80;;
19179;SDS011;9722;48.754;8.868;2023-02-17T20:07:23;0.60;;;0.60;;
19179;SDS011;9722;48.754;8.868;2023-02-17T20:10:44;1.10;;;1.10;;
19179;SDS011;9722;48.754;8.868;2023-02-17T20:14:05;1.10;;;1.10;;
19179;SDS011;9722;48.754;8.868;2023-02-17T20:17:26;1.97;;;1.87;;
19179;SDS011;9722;48.754;8.868;2023-02-17T20:20:53;1.40;;;1.30;;
19179;SDS011;9722;48.754;8.868;2023-02-17T20:24:14;1.27;;;1.17;;
19179;SDS011;9722;48.754;8.868;2023-02-17T20:27:34;0.70;;;0.70;;
19179;SDS011;9722;48.754;8.868;2023-02-17T20:30:55;1.00;;;1.00;;
19179;SDS011;9722;48.754;8.868;2023-02-17T20:34:20;1.00;;;1.00;;
19179;SDS011;9722;48.754;8.868;2023-02-17T20:37:43;1.13;;;0.70;;
19179;SDS011;9722;48.754;8.868;2023-02-17T20:41:05;1.20;;;1.10;;
19179;SDS011;9722;48.754;8.868;2023-02-17T20:44:26;0.50;;;0.50;;
19179;SDS011;9722;48.754;8.868;2023-02-17T20:47:47;0.93;;;0.60;;
19179;SDS011;9722;48.754;8.868;2023-02-17T20:51:07;0.47;;;0.43;;
19179;SDS011;9722;48.754;8.868;2023-02-17T20:54:28;0.50;;;0.50;;
19179;SDS011;9722;48.754;8.868;2023-02-17T20:57:48;1.10;;;1.00;;
19179;SDS011;9722;48.754;8.868;2023-02-17T21:01:09;1.37;;;0.63;;
19179;SDS011;9722;48.754;8.868;2023-02-17T21:04:30;0.50;;;0.50;;
19179;SDS011;9722;48.754;8.868;2023-02-17T21:07:51;1.63;;;1.40;;
19179;SDS011;9722;48.754;8.868;2023-02-17T21:11:11;1.07;;;1.00;;
19179;SDS011;9722;48.754;8.868;2023-02-17T21:14:34;0.90;;;0.80;;
19179;SDS011;9722;48.754;8.868;2023-02-17T21:17:55;0.57;;;0.57;;
19179;SDS011;9722;48.754;8.868;2023-02-17T21:21:15;0.60;;;0.60;;
19179;SDS011;9722;48.754;8.868;2023-02-17T21:24:36;0.53;;;0.47;;
19179;SDS011;9722;48.754;8.868;2023-02-17T21:27:57;1.27;;;0.70;;
19179;SDS011;9722;48.754;8.868;2023-02-17T21:31:17;0.70;;;0.70;;
19179;SDS011;9722;48.754;8.868;2023-02-17T21:34:38;0.50;;;0.50;;
19179;SDS011;9722;48.754;8.868;2023-02-17T21:37:59;0.60;;;0.60;;
19179;SDS011;9722;48.754;8.868;2023-02-17T21:41:20;2.87;;;0.60;;
19179;SDS011;9722;48.754;8.868;2023-02-17T21:44:43;0.50;;;0.50;;
19179;SDS011;9722;48.754;8.868;2023-02-17T21:48:12;0.50;;;0.50;;
19179;SDS011;9722;48.754;8.868;2023-02-17T21:51:34;0.70;;;0.70;;
19179;SDS011;9722;48.754;8.868;2023-02-17T21:54:56;0.47;;;0.40;;
19179;SDS011;9722;48.754;8.868;2023-02-17T21:58:16;0.60;;;0.60;;
19179;SDS011;9722;48.754;8.868;2023-02-17T22:01:37;2.20;;;1.33;;
19179;SDS011;9722;48.754;8.868;2023-02-17T22:04:58;1.00;;;0.87;;
19179;SDS011;9722;48.754;8.868;2023-02-17T22:08:18;0.53;;;0.53;;
19179;SDS011;9722;48.754;8.868;2023-02-17T22:11:40;0.63;;;0.63;;